sensor_id;sensor_type;location;lat;lon;timestamp;pressure;altitude;pressure_sealevel;temperature;humidity
23318;BME280;11831;55.918;37.746;2023-07-31T00:01:24;98553.25;;;19.40;0.00
23318;BME280;11831;55.918;37.746;2023-07-31T00:03:50;98552.50;;;19.48;0.00
23318;BME280;11831;55.918;37.746;2023-07-31T00:06:17;98546.47;;;19.65;0.00
23318;BME280;11831;55.918;37.746;2023-07-31T00:08:43;98552.84;;;19.69;0.00
23318;BME280;11831;55.918;37.746;2023-07-31T00:11:09;98555.53;;;19.61;0.00
23318;BME280;11831;55.918;37.746;2023-07-31T00:13:36;98546.28;;;19.48;0.00
23318;BME280;11831;55.918;37.746;2023-07-31T00:16:02;98548.38;;;19.51;0.00
23318;BME280;11831;55.918;37.746;2023-07-31T00:18:29;98548.69;;;19.49;0.00
23318;BME280;11831;55.918;37.746;2023-07-31T00:20:55;98549.25;;;19.38;0.00
23318;BME280;11831;55.918;37.746;2023-07-31T00:23:22;98550.66;;;19.35;0.00
23318;BME280;11831;55.918;37.746;2023-07-31T00:25:49;98543.16;;;19.54;0.00
23318;BME280;11831;55.918;37.746;2023-07-31T00:28:15;98550.91;;;19.47;0.00
23318;BME280;11831;55.918;37.746;2023-07-31T00:30:41;98547.06;;;19.62;0.00
23318;BME280;11831;55.918;37.746;2023-07-31T00:33:08;98544.69;;;19.47;0.00
23318;BME280;11831;55.918;37.746;2023-07-31T00:35:34;98539.94;;;19.30;0.00
23318;BME280;11831;55.918;37.746;2023-07-31T00:38:00;98543.22;;;19.41;0.00
23318;BME280;11831;55.918;37.746;2023-07-31T00:40:27;98534.59;;;19.39;0.00
23318;BME280;11831;55.918;37.746;2023-07-31T00:42:53;98544.31;;;19.40;0.00
23318;BME280;11831;55.918;37.746;2023-07-31T00:45:21;98538.84;;;19.31;0.00
23318;BME280;11831;55.918;37.746;2023-07-31T00:47:50;98536.84;;;19.23;0.00
23318;BME280;11831;55.918;37.746;2023-07-31T00:50:16;98536.47;;;19.16;0.00
23318;BME280;11831;55.918;37.746;2023-07-31T00:52:43;98539.72;;;19.27;0.00
23318;BME280;11831;55.918;37.746;2023-07-31T00:55:09;98544.34;;;19.26;0.00
23318;BME280;11831;55.918;37.746;2023-07-31T00:57:36;98547.78;;;19.18;0.00
23318;BME280;11831;55.918;37.746;2023-07-31T01:00:05;98556.91;;;19.22;0.00
23318;BME280;11831;55.918;37.746;2023-07-31T01:02:32;98553.47;;;18.94;0.00
23318;BME280;11831;55.918;37.746;2023-07-31T01:04:58;98557.00;;;18.81;0.00
23318;BME280;11831;55.918;37.746;2023-07-31T01:07:52;98554.47;;;18.98;0.00
23318;BME280;11831;55.918;37.746;2023-07-31T01:10:30;98550.88;;;18.89;0.00
23318;BME280;11831;55.918;37.746;2023-07-31T01:13:01;98543.25;;;18.91;0.00
23318;BME280;11831;55.918;37.746;2023-07-31T01:15:29;98543.13;;;18.96;0.00
23318;BME280;11831;55.918;37.746;2023-07-31T01:17:55;98561.13;;;18.78;0.00
23318;BME280;11831;55.918;37.746;2023-07-31T01:20:24;98558.00;;;18.85;0.00
23318;BME280;11831;55.918;37.746;2023-07-31T01:23:24;98553.87;;;18.87;0.00
23318;BME280;11831;55.918;37.746;2023-07-31T01:25:56;98550.94;;;18.98;0.00
23318;BME280;11831;55.918;37.746;2023-07-31T01:28:56;98555.47;;;18.88;0.00
23318;BME280;11831;55.918;37.746;2023-07-31T01:31:29;98557.09;;;18.89;0.00
23318;BME280;11831;55.918;37.746;2023-07-31T01:33:59;98546.84;;;19.00;0.00
23318;BME280;11831;55.918;37.746;2023-07-31T01:36:26;98553.00;;;18.78;0.00
23318;BME280;11831;55.918;37.746;2023-07-31T01:38:58;98553.50;;;18.80;0.00
23318;BME280;11831;55.918;37.746;2023-07-31T01:41:25;98563.72;;;18.83;0.00
23318;BME280;11831;55.918;37.746;2023-07-31T01:43:51;98558.41;;;18.78;0.00
23318;BME280;11831;55.918;37.746;2023-07-31T01:46:18;98560.69;;;18.57;0.00
23318;BME280;11831;55.918;37.746;2023-07-31T01:48:44;98555.38;;;18.52;0.00
23318;BME280;11831;55.918;37.746;2023-07-31T01:51:10;98560.31;;;18.50;0.00
23318;BME280;11831;55.918;37.746;2023-07-31T01:53:37;98567.34;;;18.65;0.00
23318;BME280;11831;55.918;37.746;2023-07-31T01:56:03;98560.09;;;18.60;0.00
23318;BME280;11831;55.918;37.746;2023-07-31T01:58:30;98573.34;;;18.48;0.00
23318;BME280;11831;55.918;37.746;2023-07-31T02:00:57;98572.72;;;18.51;0.00
23318;BME280;11831;55.918;37.746;2023-07-31T02:03:23;98570.66;;;18.62;0.00
23318;BME280;11831;55.918;37.746;2023-07-31T02:05:50;98562.72;;;18.79;0.00
23318;BME280;11831;55.918;37.746;2023-07-31T02:08:16;98564.94;;;18.77;0.00
23318;BME280;11831;55.918;37.746;2023-07-31T02:10:43;98568.22;;;18.60;0.00
23318;BME280;11831;55.918;37.746;2023-07-31T02:13:09;98569.03;;;18.88;0.00
23318;BME280;11831;55.918;37.746;2023-07-31T02:15:36;98559.31;;;18.46;0.00
23318;BME280;11831;55.918;37.746;2023-07-31T02:18:02;98576.63;;;18.45;0.00
23318;BME280;11831;55.918;37.746;2023-07-31T02:20:29;98563.09;;;18.59;0.00
23318;BME280;11831;55.918;37.746;2023-07-31T02:22:55;98571.94;;;18.37;0.00
23318;BME280;11831;55.918;37.746;2023-07-31T02:25:22;98572.22;;;18.49;0.00
23318;BME280;11831;55.918;37.746;2023-07-31T02:27:48;98568.28;;;18.28;0.00
23318;BME280;11831;55.918;37.746;2023-07-31T02:30:14;98560.00;;;18.52;0.00
23318;BME280;11831;55.918;37.746;2023-07-31T02:32:41;98568.13;;;18.38;0.00
23318;BME280;11831;55.918;37.746;2023-07-31T02:35:08;98572.62;;;18.43;0.00
23318;BME280;11831;55.918;37.746;2023-07-31T02:37:34;98566.84;;;18.63;0.00
23318;BME280;11831;55.918;37.746;2023-07-31T02:40:01;98570.94;;;18.47;0.00
23318;BME280;11831;55.918;37.746;2023-07-31T02:42:28;98580.84;;;18.38;0.00
23318;BME280;11831;55.918;37.746;2023-07-31T02:44:54;98566.38;;;18.97;0.00
23318;BME280;11831;55.918;37.746;2023-07-31T02:47:22;98569.13;;;18.83;0.00
23318;BME280;11831;55.918;37.746;2023-07-31T02:49:48;98564.22;;;18.85;0.00
23318;BME280;11831;55.918;37.746;2023-07-31T02:52:15;98561.19;;;18.59;0.00
23318;BME280;11831;55.918;37.746;2023-07-31T02:54:41;98561.63;;;18.80;0.00
23318;BME280;11831;55.918;37.746;2023-07-31T02:57:08;98572.66;;;18.84;0.00
23318;BME280;11831;55.918;37.746;2023-07-31T02:59:34;98571.44;;;18.62;0.00
23318;BME280;11831;55.918;37.746;2023-07-31T03:02:00;98573.16;;;18.72;0.00
23318;BME280;11831;55.918;37.746;2023-07-31T03:04:27;98568.94;;;18.66;0.00
23318;BME280;11831;55.918;37.746;2023-07-31T03:06:53;98575.75;;;18.77;0.00
23318;BME280;11831;55.918;37.746;2023-07-31T03:09:20;98572.56;;;18.75;0.00
23318;BME280;11831;55.918;37.746;2023-07-31T03:11:46;98567.75;;;19.22;0.00
23318;BME280;11831;55.918;37.746;2023-07-31T03:14:12;98551.53;;;19.44;0.00
23318;BME280;11831;55.918;37.746;2023-07-31T03:16:39;98554.28;;;19.67;0.00
23318;BME280;11831;55.918;37.746;2023-07-31T03:19:06;98542.56;;;19.58;0.00
23318;BME280;11831;55.918;37.746;2023-07-31T03:21:32;98549.66;;;19.67;0.00
23318;BME280;11831;55.918;37.746;2023-07-31T03:23:59;98537.37;;;19.92;0.00
23318;BME280;11831;55.918;37.746;2023-07-31T03:26:25;98539.47;;;19.95;0.00
23318;BME280;11831;55.918;37.746;2023-07-31T03:28:52;98536.38;;;19.88;0.00
23318;BME280;11831;55.918;37.746;2023-07-31T03:31:18;98543.16;;;20.39;0.00
23318;BME280;11831;55.918;37.746;2023-07-31T03:33:44;98536.91;;;20.30;0.00
23318;BME280;11831;55.918;37.746;2023-07-31T03:36:10;98544.09;;;20.74;0.00
23318;BME280;11831;55.918;37.746;2023-07-31T03:38:37;98535.00;;;20.78;0.00
23318;BME280;11831;55.918;37.746;2023-07-31T03:41:04;98543.34;;;20.82;0.00
23318;BME280;11831;55.918;37.746;2023-07-31T03:43:32;98541.44;;;20.83;0.00
23318;BME280;11831;55.918;37.746;2023-07-31T03:46:02;98537.06;;;20.64;0.00
23318;BME280;11831;55.918;37.746;2023-07-31T03:48:28;98545.37;;;20.68;0.00
23318;BME280;11831;55.918;37.746;2023-07-31T03:50:55;98542.75;;;21.20;0.00
23318;BME280;11831;55.918;37.746;2023-07-31T03:53:21;98541.44;;;20.91;0.00
23318;BME280;11831;55.918;37.746;2023-07-31T03:55:48;98545.31;;;21.33;0.00
23318;BME280;11831;55.918;37.746;2023-07-31T03:58:14;98533.59;;;20.98;0.00
23318;BME280;11831;55.918;37.746;2023-07-31T04:00:41;98538.16;;;21.46;0.00
23318;BME280;11831;55.918;37.746;2023-07-31T04:03:08;98538.41;;;21.70;0.00
23318;BME280;11831;55.918;37.746;2023-07-31T04:05:38;98541.12;;;21.79;0.00
23318;BME280;11831;55.918;37.746;2023-07-31T04:08:05;98535.78;;;22.00;0.00
23318;BME280;11831;55.918;37.746;2023-07-31T04:10:32;98532.94;;;21.96;0.00
23318;BME280;11831;55.918;37.746;2023-07-31T04:13:00;98535.16;;;22.12;0.00
23318;BME280;11831;55.918;37.746;2023-07-31T04:15:29;98543.97;;;22.09;0.00
23318;BME280;11831;55.918;37.746;2023-07-31T04:17:55;98535.28;;;22.24;0.00
23318;BME280;11831;55.918;37.746;2023-07-31T04:20:21;98545.75;;;21.87;0.00
23318;BME280;11831;55.918;37.746;2023-07-31T04:22:48;98541.88;;;22.14;0.00
23318;BME280;11831;55.918;37.746;2023-07-31T04:25:15;98552.28;;;22.12;0.00
23318;BME280;11831;55.918;37.746;2023-07-31T04:27:41;98544.19;;;22.33;0.00
23318;BME280;11831;55.918;37.746;2023-07-31T04:30:08;98556.19;;;22.41;0.00
23318;BME280;11831;55.918;37.746;2023-07-31T04:32:34;98560.34;;;22.47;0.00
23318;BME280;11831;55.918;37.746;2023-07-31T04:35:02;98560.91;;;22.99;0.00
23318;BME280;11831;55.918;37.746;2023-07-31T04:37:29;98550.91;;;23.03;0.00
23318;BME280;11831;55.918;37.746;2023-07-31T04:39:56;98560.47;;;22.50;0.00
23318;BME280;11831;55.918;37.746;2023-07-31T04:42:22;98553.44;;;23.08;0.00
23318;BME280;11831;55.918;37.746;2023-07-31T04:44:49;98554.44;;;23.24;0.00
23318;BME280;11831;55.918;37.746;2023-07-31T04:47:15;98558.56;;;23.51;0.00
23318;BME280;11831;55.918;37.746;2023-07-31T04:49:41;98555.38;;;23.70;0.00
23318;BME280;11831;55.918;37.746;2023-07-31T04:52:07;98555.19;;;23.13;0.00
23318;BME280;11831;55.918;37.746;2023-07-31T04:54:34;98561.56;;;23.38;0.00
23318;BME280;11831;55.918;37.746;2023-07-31T04:57:00;98560.28;;;23.14;0.00
23318;BME280;11831;55.918;37.746;2023-07-31T04:59:26;98562.03;;;23.19;0.00
23318;BME280;11831;55.918;37.746;2023-07-31T05:01:52;98559.81;;;23.12;0.00
23318;BME280;11831;55.918;37.746;2023-07-31T05:04:18;98563.44;;;23.67;0.00
23318;BME280;11831;55.918;37.746;2023-07-31T05:06:45;98560.56;;;23.42;0.00
23318;BME280;11831;55.918;37.746;2023-07-31T05:09:11;98563.00;;;24.10;0.00
23318;BME280;11831;55.918;37.746;2023-07-31T05:11:38;98568.09;;;23.99;0.00
23318;BME280;11831;55.918;37.746;2023-07-31T05:14:06;98562.09;;;24.18;0.00
23318;BME280;11831;55.918;37.746;2023-07-31T05:16:33;98558.31;;;24.10;0.00
23318;BME280;11831;55.918;37.746;2023-07-31T05:18:59;98561.84;;;24.11;0.00
23318;BME280;11831;55.918;37.746;2023-07-31T05:21:26;98567.41;;;24.02;0.00
23318;BME280;11831;55.918;37.746;2023-07-31T05:23:53;98560.78;;;23.58;0.00
23318;BME280;11831;55.918;37.746;2023-07-31T05:26:19;98548.50;;;24.42;0.00
23318;BME280;11831;55.918;37.746;2023-07-31T05:28:45;98562.81;;;23.82;0.00
23318;BME280;11831;55.918;37.746;2023-07-31T05:31:12;98565.47;;;23.91;0.00
23318;BME280;11831;55.918;37.746;2023-07-31T05:33:38;98568.91;;;23.67;0.00
23318;BME280;11831;55.918;37.746;2023-07-31T05:36:04;98568.56;;;23.68;0.00
23318;BME280;11831;55.918;37.746;2023-07-31T05:38:30;98567.09;;;24.16;0.00
23318;BME280;11831;55.918;37.746;2023-07-31T05:40:57;98573.22;;;23.68;0.00
23318;BME280;11831;55.918;37.746;2023-07-31T05:43:23;98566.03;;;24.29;0.00
23318;BME280;11831;55.918;37.746;2023-07-31T05:45:51;98567.69;;;24.22;0.00
23318;BME280;11831;55.918;37.746;2023-07-31T05:48:17;98567.09;;;24.16;0.00
23318;BME280;11831;55.918;37.746;2023-07-31T05:50:43;98574.59;;;24.07;0.00
23318;BME280;11831;55.918;37.746;2023-07-31T05:53:10;98588.00;;;23.67;0.00
23318;BME280;11831;55.918;37.746;2023-07-31T05:55:36;98582.31;;;23.93;0.00
23318;BME280;11831;55.918;37.746;2023-07-31T05:58:03;98576.03;;;23.92;0.00
23318;BME280;11831;55.918;37.746;2023-07-31T06:00:29;98574.22;;;24.29;0.00
23318;BME280;11831;55.918;37.746;2023-07-31T06:02:55;98590.66;;;23.88;0.00
23318;BME280;11831;55.918;37.746;2023-07-31T06:05:21;98582.87;;;23.65;0.00
23318;BME280;11831;55.918;37.746;2023-07-31T06:07:48;98587.41;;;23.61;0.00
23318;BME280;11831;55.918;37.746;2023-07-31T06:10:14;98580.72;;;23.71;0.00
23318;BME280;11831;55.918;37.746;2023-07-31T06:12:41;98579.59;;;24.05;0.00
23318;BME280;11831;55.918;37.746;2023-07-31T06:15:07;98584.25;;;24.04;0.00
23318;BME280;11831;55.918;37.746;2023-07-31T06:17:33;98578.47;;;24.18;0.00
23318;BME280;11831;55.918;37.746;2023-07-31T06:20:00;98580.38;;;24.38;0.00
23318;BME280;11831;55.918;37.746;2023-07-31T06:22:26;98579.22;;;24.39;0.00
23318;BME280;11831;55.918;37.746;2023-07-31T06:24:52;98587.50;;;24.19;0.00
23318;BME280;11831;55.918;37.746;2023-07-31T06:27:19;98591.63;;;23.92;0.00
23318;BME280;11831;55.918;37.746;2023-07-31T06:29:45;98591.50;;;23.88;0.00
23318;BME280;11831;55.918;37.746;2023-07-31T06:32:12;98591.87;;;24.32;0.00
23318;BME280;11831;55.918;37.746;2023-07-31T06:34:38;98575.37;;;24.65;0.00
23318;BME280;11831;55.918;37.746;2023-07-31T06:37:05;98574.03;;;24.83;0.00
23318;BME280;11831;55.918;37.746;2023-07-31T06:39:31;98569.13;;;24.89;0.00
23318;BME280;11831;55.918;37.746;2023-07-31T06:41:57;98576.41;;;25.21;0.00
23318;BME280;11831;55.918;37.746;2023-07-31T06:44:23;98575.03;;;25.15;0.00
23318;BME280;11831;55.918;37.746;2023-07-31T06:46:50;98601.47;;;24.50;0.00
23318;BME280;11831;55.918;37.746;2023-07-31T06:49:17;98584.72;;;24.88;0.00
23318;BME280;11831;55.918;37.746;2023-07-31T06:51:43;98590.87;;;24.85;0.00
23318;BME280;11831;55.918;37.746;2023-07-31T06:54:10;98586.78;;;24.67;0.00
23318;BME280;11831;55.918;37.746;2023-07-31T06:56:36;98594.25;;;24.33;0.00
23318;BME280;11831;55.918;37.746;2023-07-31T06:59:03;98586.44;;;25.17;0.00
23318;BME280;11831;55.918;37.746;2023-07-31T07:01:29;98589.63;;;25.07;0.00
23318;BME280;11831;55.918;37.746;2023-07-31T07:03:55;98590.56;;;24.99;0.00
23318;BME280;11831;55.918;37.746;2023-07-31T07:06:22;98587.69;;;25.20;0.00
23318;BME280;11831;55.918;37.746;2023-07-31T07:08:49;98586.53;;;24.96;0.00
23318;BME280;11831;55.918;37.746;2023-07-31T07:11:15;98598.37;;;24.76;0.00
23318;BME280;11831;55.918;37.746;2023-07-31T07:13:41;98586.44;;;24.68;0.00
23318;BME280;11831;55.918;37.746;2023-07-31T07:16:07;98587.09;;;25.26;0.00
23318;BME280;11831;55.918;37.746;2023-07-31T07:18:34;98579.03;;;24.81;0.00
23318;BME280;11831;55.918;37.746;2023-07-31T07:21:00;98571.16;;;25.04;0.00
23318;BME280;11831;55.918;37.746;2023-07-31T07:23:28;98572.38;;;25.31;0.00
23318;BME280;11831;55.918;37.746;2023-07-31T07:25:54;98577.19;;;25.62;0.00
23318;BME280;11831;55.918;37.746;2023-07-31T07:28:20;98605.94;;;25.16;0.00
23318;BME280;11831;55.918;37.746;2023-07-31T07:30:51;98589.13;;;25.82;0.00
23318;BME280;11831;55.918;37.746;2023-07-31T07:33:19;98585.91;;;25.52;0.00
23318;BME280;11831;55.918;37.746;2023-07-31T07:35:45;98589.06;;;25.54;0.00
23318;BME280;11831;55.918;37.746;2023-07-31T07:38:14;98592.47;;;25.63;0.00
23318;BME280;11831;55.918;37.746;2023-07-31T07:40:41;98591.41;;;26.08;0.00
23318;BME280;11831;55.918;37.746;2023-07-31T07:43:07;98595.22;;;25.91;0.00
23318;BME280;11831;55.918;37.746;2023-07-31T07:45:34;98579.75;;;25.83;0.00
23318;BME280;11831;55.918;37.746;2023-07-31T07:48:00;98588.72;;;26.39;0.00
23318;BME280;11831;55.918;37.746;2023-07-31T07:50:26;98582.50;;;25.83;0.00
23318;BME280;11831;55.918;37.746;2023-07-31T07:52:52;98577.09;;;26.14;0.00
23318;BME280;11831;55.918;37.746;2023-07-31T07:55:19;98586.75;;;25.96;0.00
23318;BME280;11831;55.918;37.746;2023-07-31T07:57:45;98593.47;;;25.98;0.00
23318;BME280;11831;55.918;37.746;2023-07-31T08:00:12;98580.84;;;26.53;0.00
23318;BME280;11831;55.918;37.746;2023-07-31T08:02:40;98587.38;;;26.80;0.00
23318;BME280;11831;55.918;37.746;2023-07-31T08:05:06;98584.44;;;26.89;0.00
23318;BME280;11831;55.918;37.746;2023-07-31T08:07:33;98589.13;;;27.04;0.00
23318;BME280;11831;55.918;37.746;2023-07-31T08:09:59;98611.66;;;25.91;0.00
23318;BME280;11831;55.918;37.746;2023-07-31T08:12:25;98614.34;;;26.03;0.00
23318;BME280;11831;55.918;37.746;2023-07-31T08:14:51;98610.66;;;26.11;0.00
23318;BME280;11831;55.918;37.746;2023-07-31T08:17:18;98587.78;;;26.04;0.00
23318;BME280;11831;55.918;37.746;2023-07-31T08:19:44;98615.44;;;26.14;0.00
23318;BME280;11831;55.918;37.746;2023-07-31T08:22:11;98582.87;;;26.41;0.00
23318;BME280;11831;55.918;37.746;2023-07-31T08:24:37;98591.25;;;26.95;0.00
23318;BME280;11831;55.918;37.746;2023-07-31T08:27:06;98605.25;;;26.58;0.00
23318;BME280;11831;55.918;37.746;2023-07-31T08:29:32;98605.44;;;26.66;0.00
23318;BME280;11831;55.918;37.746;2023-07-31T08:31:58;98585.97;;;25.95;0.00
23318;BME280;11831;55.918;37.746;2023-07-31T08:34:25;98598.87;;;26.54;0.00
23318;BME280;11831;55.918;37.746;2023-07-31T08:36:51;98598.25;;;26.61;0.00
23318;BME280;11831;55.918;37.746;2023-07-31T08:39:17;98595.28;;;26.66;0.00
23318;BME280;11831;55.918;37.746;2023-07-31T08:41:44;98577.56;;;26.79;0.00
23318;BME280;11831;55.918;37.746;2023-07-31T08:44:10;98623.72;;;26.02;0.00
23318;BME280;11831;55.918;37.746;2023-07-31T08:46:38;98615.25;;;26.67;0.00
23318;BME280;11831;55.918;37.746;2023-07-31T08:49:05;98617.28;;;26.38;0.00
23318;BME280;11831;55.918;37.746;2023-07-31T08:51:34;98615.41;;;26.74;0.00
23318;BME280;11831;55.918;37.746;2023-07-31T08:54:01;98611.72;;;26.35;0.00
23318;BME280;11831;55.918;37.746;2023-07-31T08:56:31;98614.44;;;26.50;0.00
23318;BME280;11831;55.918;37.746;2023-07-31T08:59:00;98620.28;;;26.49;0.00
23318;BME280;11831;55.918;37.746;2023-07-31T09:01:29;98604.28;;;26.51;0.00
23318;BME280;11831;55.918;37.746;2023-07-31T09:03:59;98607.53;;;26.56;0.00
23318;BME280;11831;55.918;37.746;2023-07-31T09:06:28;98608.69;;;27.03;0.00
23318;BME280;11831;55.918;37.746;2023-07-31T09:08:56;98616.28;;;26.62;0.00
23318;BME280;11831;55.918;37.746;2023-07-31T09:11:23;98616.75;;;26.64;0.00
23318;BME280;11831;55.918;37.746;2023-07-31T09:13:50;98604.75;;;26.25;0.00
23318;BME280;11831;55.918;37.746;2023-07-31T09:16:18;98605.84;;;26.83;0.00
23318;BME280;11831;55.918;37.746;2023-07-31T09:18:56;98605.16;;;27.02;0.00
23318;BME280;11831;55.918;37.746;2023-07-31T09:21:24;98612.50;;;26.82;0.00
23318;BME280;11831;55.918;37.746;2023-07-31T09:23:51;98607.53;;;26.88;0.00
23318;BME280;11831;55.918;37.746;2023-07-31T09:26:30;98602.78;;;27.36;0.00
23318;BME280;11831;55.918;37.746;2023-07-31T09:28:58;98615.84;;;27.07;0.00
23318;BME280;11831;55.918;37.746;2023-07-31T09:31:41;98616.38;;;26.97;0.00
23318;BME280;11831;55.918;37.746;2023-07-31T09:34:08;98601.72;;;27.79;0.00
23318;BME280;11831;55.918;37.746;2023-07-31T09:36:40;98602.62;;;27.48;0.00
23318;BME280;11831;55.918;37.746;2023-07-31T09:39:12;98635.25;;;26.67;0.00
23318;BME280;11831;55.918;37.746;2023-07-31T09:41:42;98607.47;;;27.35;0.00
23318;BME280;11831;55.918;37.746;2023-07-31T09:44:09;98609.53;;;27.58;0.00
23318;BME280;11831;55.918;37.746;2023-07-31T09:46:35;98627.69;;;27.27;0.00
23318;BME280;11831;55.918;37.746;2023-07-31T09:49:09;98613.31;;;27.34;0.00
23318;BME280;11831;55.918;37.746;2023-07-31T09:51:37;98626.09;;;27.26;0.00
23318;BME280;11831;55.918;37.746;2023-07-31T09:54:15;98616.75;;;26.96;0.00
23318;BME280;11831;55.918;37.746;2023-07-31T09:56:44;98600.16;;;27.78;0.00
23318;BME280;11831;55.918;37.746;2023-07-31T09:59:16;98605.63;;;27.97;0.00
23318;BME280;11831;55.918;37.746;2023-07-31T10:01:44;98606.41;;;27.24;0.00
23318;BME280;11831;55.918;37.746;2023-07-31T10:04:13;98625.22;;;27.06;0.00
23318;BME280;11831;55.918;37.746;2023-07-31T10:06:42;98609.09;;;27.20;0.00
23318;BME280;11831;55.918;37.746;2023-07-31T10:09:11;98606.63;;;28.08;0.00
23318;BME280;11831;55.918;37.746;2023-07-31T10:11:47;98611.25;;;28.24;0.00
23318;BME280;11831;55.918;37.746;2023-07-31T10:14:21;98608.53;;;27.66;0.00
23318;BME280;11831;55.918;37.746;2023-07-31T10:16:48;98614.59;;;27.56;0.00
23318;BME280;11831;55.918;37.746;2023-07-31T10:19:15;98610.66;;;28.14;0.00
23318;BME280;11831;55.918;37.746;2023-07-31T10:21:42;98616.63;;;27.97;0.00
23318;BME280;11831;55.918;37.746;2023-07-31T10:24:09;98615.50;;;28.21;0.00
23318;BME280;11831;55.918;37.746;2023-07-31T10:26:38;98609.66;;;28.45;0.00
23318;BME280;11831;55.918;37.746;2023-07-31T10:29:05;98608.88;;;28.68;0.00
23318;BME280;11831;55.918;37.746;2023-07-31T10:31:34;98607.84;;;28.30;0.00
23318;BME280;11831;55.918;37.746;2023-07-31T10:34:01;98606.19;;;28.06;0.00
23318;BME280;11831;55.918;37.746;2023-07-31T10:36:29;98607.47;;;28.32;0.00
23318;BME280;11831;55.918;37.746;2023-07-31T10:38:56;98603.47;;;27.87;0.00
23318;BME280;11831;55.918;37.746;2023-07-31T10:41:29;98625.06;;;28.08;0.00
23318;BME280;11831;55.918;37.746;2023-07-31T10:44:00;98609.59;;;28.19;0.00
23318;BME280;11831;55.918;37.746;2023-07-31T10:46:29;98606.00;;;28.61;0.00
23318;BME280;11831;55.918;37.746;2023-07-31T10:49:00;98603.56;;;28.33;0.00
23318;BME280;11831;55.918;37.746;2023-07-31T10:51:34;98601.50;;;28.49;0.00
23318;BME280;11831;55.918;37.746;2023-07-31T10:54:14;98625.00;;;27.66;0.00
23318;BME280;11831;55.918;37.746;2023-07-31T10:56:45;98607.69;;;28.23;0.00
23318;BME280;11831;55.918;37.746;2023-07-31T10:59:12;98609.66;;;28.23;0.00
23318;BME280;11831;55.918;37.746;2023-07-31T11:01:58;98599.44;;;27.62;0.00
23318;BME280;11831;55.918;37.746;2023-07-31T11:04:25;98616.72;;;28.24;0.00
23318;BME280;11831;55.918;37.746;2023-07-31T11:06:57;98606.47;;;28.21;0.00
23318;BME280;11831;55.918;37.746;2023-07-31T11:09:28;98586.47;;;28.43;0.00
23318;BME280;11831;55.918;37.746;2023-07-31T11:11:56;98605.03;;;28.27;0.00
23318;BME280;11831;55.918;37.746;2023-07-31T11:14:23;98604.53;;;28.21;0.00
23318;BME280;11831;55.918;37.746;2023-07-31T11:16:52;98602.72;;;28.29;0.00
23318;BME280;11831;55.918;37.746;2023-07-31T11:19:25;98596.50;;;28.55;0.00
23318;BME280;11831;55.918;37.746;2023-07-31T11:21:55;98596.06;;;28.10;0.00
23318;BME280;11831;55.918;37.746;2023-07-31T11:24:22;98599.69;;;27.57;0.00
23318;BME280;11831;55.918;37.746;2023-07-31T11:26:52;98603.50;;;27.52;0.00
23318;BME280;11831;55.918;37.746;2023-07-31T11:29:19;98601.84;;;27.47;0.00
23318;BME280;11831;55.918;37.746;2023-07-31T11:31:47;98589.53;;;28.38;0.00
23318;BME280;11831;55.918;37.746;2023-07-31T11:34:14;98594.50;;;29.57;0.00
23318;BME280;11831;55.918;37.746;2023-07-31T11:36:41;98588.97;;;31.16;0.00
23318;BME280;11831;55.918;37.746;2023-07-31T11:39:13;98596.91;;;29.59;0.00
23318;BME280;11831;55.918;37.746;2023-07-31T11:41:42;98576.84;;;32.58;0.00
23318;BME280;11831;55.918;37.746;2023-07-31T11:44:08;98585.13;;;32.72;0.00
23318;BME280;11831;55.918;37.746;2023-07-31T11:46:35;98587.50;;;32.41;0.00
23318;BME280;11831;55.918;37.746;2023-07-31T11:49:02;98591.03;;;29.97;0.00
23318;BME280;11831;55.918;37.746;2023-07-31T11:51:28;98582.91;;;30.93;0.00
23318;BME280;11831;55.918;37.746;2023-07-31T11:54:00;98589.50;;;30.78;0.00
23318;BME280;11831;55.918;37.746;2023-07-31T11:56:27;98588.28;;;31.30;0.00
23318;BME280;11831;55.918;37.746;2023-07-31T11:58:58;98598.34;;;30.13;0.00
23318;BME280;11831;55.918;37.746;2023-07-31T12:01:26;98600.72;;;30.58;0.00
23318;BME280;11831;55.918;37.746;2023-07-31T12:03:54;98610.62;;;31.80;0.00
23318;BME280;11831;55.918;37.746;2023-07-31T12:06:20;98599.81;;;30.92;0.00
23318;BME280;11831;55.918;37.746;2023-07-31T12:08:47;98601.34;;;30.38;0.00
23318;BME280;11831;55.918;37.746;2023-07-31T12:11:15;98613.56;;;29.70;0.00
23318;BME280;11831;55.918;37.746;2023-07-31T12:13:41;98603.28;;;30.00;0.00
23318;BME280;11831;55.918;37.746;2023-07-31T12:16:07;98605.59;;;29.34;0.00
23318;BME280;11831;55.918;37.746;2023-07-31T12:18:36;98607.63;;;29.11;0.00
23318;BME280;11831;55.918;37.746;2023-07-31T12:21:05;98607.91;;;28.14;0.00
23318;BME280;11831;55.918;37.746;2023-07-31T12:23:33;98608.16;;;28.25;0.00
23318;BME280;11831;55.918;37.746;2023-07-31T12:26:11;98611.81;;;28.13;0.00
23318;BME280;11831;55.918;37.746;2023-07-31T12:28:41;98620.22;;;28.01;0.00
23318;BME280;11831;55.918;37.746;2023-07-31T12:31:11;98618.84;;;28.30;0.00
23318;BME280;11831;55.918;37.746;2023-07-31T12:33:40;98619.22;;;28.52;0.00
23318;BME280;11831;55.918;37.746;2023-07-31T12:36:11;98610.59;;;28.30;0.00
23318;BME280;11831;55.918;37.746;2023-07-31T12:38:38;98617.44;;;27.08;0.00
23318;BME280;11831;55.918;37.746;2023-07-31T12:41:04;98625.09;;;27.89;0.00
23318;BME280;11831;55.918;37.746;2023-07-31T12:43:37;98627.84;;;27.53;0.00
23318;BME280;11831;55.918;37.746;2023-07-31T12:46:03;98634.34;;;26.95;0.00
23318;BME280;11831;55.918;37.746;2023-07-31T12:48:31;98626.63;;;26.53;0.00
23318;BME280;11831;55.918;37.746;2023-07-31T12:50:57;98628.50;;;26.80;0.00
23318;BME280;11831;55.918;37.746;2023-07-31T12:53:24;98636.28;;;26.47;0.00
23318;BME280;11831;55.918;37.746;2023-07-31T12:55:50;98637.88;;;26.79;0.00
23318;BME280;11831;55.918;37.746;2023-07-31T12:58:16;98625.56;;;26.89;0.00
23318;BME280;11831;55.918;37.746;2023-07-31T13:00:43;98612.81;;;27.47;0.00
23318;BME280;11831;55.918;37.746;2023-07-31T13:03:09;98612.00;;;27.63;0.00